sensor_id;sensor_type;location;lat;lon;timestamp;pressure;altitude;pressure_sealevel;temperature;humidity
9415;BME280;4746;35.664;139.738;2023-04-08T00:00:51;99180.50;;;23.99;39.17
9415;BME280;4746;35.664;139.738;2023-04-08T00:03:19;99175.25;;;23.99;39.36
9415;BME280;4746;35.664;139.738;2023-04-08T00:05:47;99179.44;;;24.02;39.20
9415;BME280;4746;35.664;139.738;2023-04-08T00:08:15;99173.09;;;24.06;39.37
9415;BME280;4746;35.664;139.738;2023-04-08T00:10:44;99175.91;;;24.03;38.79
9415;BME280;4746;35.664;139.738;2023-04-08T00:13:12;99167.72;;;23.95;39.40
9415;BME280;4746;35.664;139.738;2023-04-08T00:15:41;99154.16;;;23.88;39.02
9415;BME280;4746;35.664;139.738;2023-04-08T00:18:08;99133.34;;;23.87;39.48
9415;BME280;4746;35.664;139.738;2023-04-08T00:20:36;99140.25;;;23.88;39.55
9415;BME280;4746;35.664;139.738;2023-04-08T00:23:04;99132.19;;;23.91;39.33
9415;BME280;4746;35.664;139.738;2023-04-08T00:25:31;99134.81;;;23.91;39.36
9415;BME280;4746;35.664;139.738;2023-04-08T00:27:59;99140.69;;;23.94;39.66
9415;BME280;4746;35.664;139.738;2023-04-08T00:30:26;99139.25;;;24.03;39.41
9415;BME280;4746;35.664;139.738;2023-04-08T00:32:54;99131.75;;;24.11;40.05
9415;BME280;4746;35.664;139.738;2023-04-08T00:35:22;99135.97;;;24.13;40.15
9415;BME280;4746;35.664;139.738;2023-04-08T00:37:50;99130.28;;;24.07;40.46
9415;BME280;4746;35.664;139.738;2023-04-08T00:40:17;99126.50;;;23.98;40.53
9415;BME280;4746;35.664;139.738;2023-04-08T00:42:45;99125.91;;;23.93;41.33
9415;BME280;4746;35.664;139.738;2023-04-08T00:45:13;99126.03;;;23.92;41.02
9415;BME280;4746;35.664;139.738;2023-04-08T00:47:41;99119.97;;;23.91;41.38
9415;BME280;4746;35.664;139.738;2023-04-08T00:50:10;99118.53;;;24.00;41.73
9415;BME280;4746;35.664;139.738;2023-04-08T00:52:37;99117.34;;;24.18;41.01
9415;BME280;4746;35.664;139.738;2023-04-08T00:55:05;99124.19;;;24.33;41.64
9415;BME280;4746;35.664;139.738;2023-04-08T00:57:33;99116.94;;;24.50;41.38
9415;BME280;4746;35.664;139.738;2023-04-08T01:00:02;99111.53;;;24.65;41.17
9415;BME280;4746;35.664;139.738;2023-04-08T01:05:26;99109.97;;;25.25;40.72
9415;BME280;4746;35.664;139.738;2023-04-08T01:07:56;99107.84;;;25.42;40.16
9415;BME280;4746;35.664;139.738;2023-04-08T01:10:29;99094.81;;;25.53;40.41
9415;BME280;4746;35.664;139.738;2023-04-08T01:13:04;99093.53;;;25.59;40.14
9415;BME280;4746;35.664;139.738;2023-04-08T01:15:37;99085.63;;;25.71;40.23
9415;BME280;4746;35.664;139.738;2023-04-08T01:18:11;99094.09;;;25.87;40.32
9415;BME280;4746;35.664;139.738;2023-04-08T01:20:42;99085.78;;;25.93;40.48
9415;BME280;4746;35.664;139.738;2023-04-08T01:23:38;99082.75;;;25.87;41.27
9415;BME280;4746;35.664;139.738;2023-04-08T01:26:07;99088.63;;;25.54;42.02
9415;BME280;4746;35.664;139.738;2023-04-08T01:28:38;99086.91;;;25.30;42.99
9415;BME280;4746;35.664;139.738;2023-04-08T01:31:07;99079.34;;;25.13;43.56
9415;BME280;4746;35.664;139.738;2023-04-08T01:33:36;99075.66;;;25.03;43.61
9415;BME280;4746;35.664;139.738;2023-04-08T01:36:05;99077.03;;;24.96;43.37
9415;BME280;4746;35.664;139.738;2023-04-08T01:38:35;99076.94;;;24.98;43.74
9415;BME280;4746;35.664;139.738;2023-04-08T01:41:04;99078.69;;;24.97;43.96
9415;BME280;4746;35.664;139.738;2023-04-08T01:43:34;99085.63;;;24.98;43.98
9415;BME280;4746;35.664;139.738;2023-04-08T01:46:02;99078.94;;;24.94;44.14
9415;BME280;4746;35.664;139.738;2023-04-08T01:48:30;99075.78;;;24.89;44.91
9415;BME280;4746;35.664;139.738;2023-04-08T01:50:59;99069.28;;;24.82;45.49
9415;BME280;4746;35.664;139.738;2023-04-08T01:53:27;99080.72;;;24.81;45.89
9415;BME280;4746;35.664;139.738;2023-04-08T01:56:06;99066.25;;;24.88;45.71
9415;BME280;4746;35.664;139.738;2023-04-08T01:58:46;99078.94;;;24.94;45.90
9415;BME280;4746;35.664;139.738;2023-04-08T02:01:20;99080.91;;;25.03;45.72
9415;BME280;4746;35.664;139.738;2023-04-08T02:03:50;99087.63;;;25.07;45.93
9415;BME280;4746;35.664;139.738;2023-04-08T02:06:23;99069.16;;;24.96;46.13
9415;BME280;4746;35.664;139.738;2023-04-08T02:08:54;99070.31;;;24.92;45.94
9415;BME280;4746;35.664;139.738;2023-04-08T02:11:22;99072.00;;;24.93;46.17
9415;BME280;4746;35.664;139.738;2023-04-08T02:13:54;99062.78;;;25.00;46.31
9415;BME280;4746;35.664;139.738;2023-04-08T02:22:22;99070.34;;;24.80;45.93
9415;BME280;4746;35.664;139.738;2023-04-08T02:24:52;99056.81;;;24.61;46.26
9415;BME280;4746;35.664;139.738;2023-04-08T02:27:20;99059.63;;;24.58;46.84
9415;BME280;4746;35.664;139.738;2023-04-08T02:29:50;99060.88;;;24.52;46.78
9415;BME280;4746;35.664;139.738;2023-04-08T02:32:21;99053.28;;;24.36;47.16
9415;BME280;4746;35.664;139.738;2023-04-08T02:34:50;99058.06;;;24.17;47.46
9415;BME280;4746;35.664;139.738;2023-04-08T02:37:18;99055.72;;;24.00;47.97
9415;BME280;4746;35.664;139.738;2023-04-08T02:39:46;99056.91;;;23.82;47.56
9415;BME280;4746;35.664;139.738;2023-04-08T02:42:13;99056.38;;;23.63;48.16
9415;BME280;4746;35.664;139.738;2023-04-08T02:44:41;99059.97;;;23.48;48.21
9415;BME280;4746;35.664;139.738;2023-04-08T02:47:09;99055.59;;;23.35;48.33
9415;BME280;4746;35.664;139.738;2023-04-08T02:49:36;99062.16;;;23.28;48.79
9415;BME280;4746;35.664;139.738;2023-04-08T02:52:04;99054.88;;;23.19;49.10
9415;BME280;4746;35.664;139.738;2023-04-08T02:54:32;99069.13;;;23.00;48.87
9415;BME280;4746;35.664;139.738;2023-04-08T02:56:59;99061.28;;;22.86;49.42
9415;BME280;4746;35.664;139.738;2023-04-08T02:59:27;99067.91;;;22.77;49.40
9415;BME280;4746;35.664;139.738;2023-04-08T03:01:54;99061.28;;;22.72;49.52
9415;BME280;4746;35.664;139.738;2023-04-08T03:04:22;99061.09;;;22.75;49.91
9415;BME280;4746;35.664;139.738;2023-04-08T03:06:49;99067.19;;;22.75;49.77
9415;BME280;4746;35.664;139.738;2023-04-08T03:09:17;99067.44;;;22.71;49.80
9415;BME280;4746;35.664;139.738;2023-04-08T03:11:44;99059.78;;;22.68;49.95
9415;BME280;4746;35.664;139.738;2023-04-08T03:14:18;99068.06;;;22.60;49.91
9415;BME280;4746;35.664;139.738;2023-04-08T03:16:46;99073.56;;;22.56;50.18
9415;BME280;4746;35.664;139.738;2023-04-08T03:19:14;99079.44;;;22.59;50.51
9415;BME280;4746;35.664;139.738;2023-04-08T03:21:41;99064.06;;;22.69;50.32
9415;BME280;4746;35.664;139.738;2023-04-08T03:24:09;99067.91;;;22.77;50.31
9415;BME280;4746;35.664;139.738;2023-04-08T03:26:36;99076.22;;;22.84;50.18
9415;BME280;4746;35.664;139.738;2023-04-08T03:29:04;99075.56;;;22.80;50.04
9415;BME280;4746;35.664;139.738;2023-04-08T03:31:32;99075.47;;;22.82;49.72
9415;BME280;4746;35.664;139.738;2023-04-08T03:34:00;99062.03;;;22.88;49.96
9415;BME280;4746;35.664;139.738;2023-04-08T03:36:27;99067.44;;;22.99;49.63
9415;BME280;4746;35.664;139.738;2023-04-08T03:38:55;99058.91;;;23.10;49.79
9415;BME280;4746;35.664;139.738;2023-04-08T03:41:22;99049.75;;;23.31;49.60
9415;BME280;4746;35.664;139.738;2023-04-08T03:43:50;99062.38;;;23.51;48.68
9415;BME280;4746;35.664;139.738;2023-04-08T03:46:18;99054.50;;;23.65;48.60
9415;BME280;4746;35.664;139.738;2023-04-08T03:48:45;99037.56;;;23.97;48.23
9415;BME280;4746;35.664;139.738;2023-04-08T03:51:12;99044.91;;;24.31;47.52
9415;BME280;4746;35.664;139.738;2023-04-08T03:53:40;99035.72;;;24.62;46.94
9415;BME280;4746;35.664;139.738;2023-04-08T03:56:07;99047.88;;;24.76;46.15
9415;BME280;4746;35.664;139.738;2023-04-08T03:58:35;99045.97;;;24.90;46.20
9415;BME280;4746;35.664;139.738;2023-04-08T04:01:03;99046.22;;;24.87;45.77
9415;BME280;4746;35.664;139.738;2023-04-08T04:03:30;99038.47;;;24.86;45.78
9415;BME280;4746;35.664;139.738;2023-04-08T04:05:57;99038.03;;;24.79;45.84
9415;BME280;4746;35.664;139.738;2023-04-08T04:08:25;99033.94;;;24.75;45.73
9415;BME280;4746;35.664;139.738;2023-04-08T04:10:52;99041.28;;;24.58;46.03
9415;BME280;4746;35.664;139.738;2023-04-08T04:13:20;99044.28;;;24.40;45.85
9415;BME280;4746;35.664;139.738;2023-04-08T04:15:47;99043.41;;;24.14;46.30
9415;BME280;4746;35.664;139.738;2023-04-08T04:18:15;99045.84;;;23.91;46.68
9415;BME280;4746;35.664;139.738;2023-04-08T04:20:43;99046.72;;;23.78;46.80
9415;BME280;4746;35.664;139.738;2023-04-08T04:23:11;99044.03;;;23.65;47.04
9415;BME280;4746;35.664;139.738;2023-04-08T04:25:41;99041.94;;;23.58;47.18
9415;BME280;4746;35.664;139.738;2023-04-08T04:28:09;99031.53;;;23.56;47.16
9415;BME280;4746;35.664;139.738;2023-04-08T04:30:40;99030.31;;;23.62;46.81
9415;BME280;4746;35.664;139.738;2023-04-08T04:33:08;99019.59;;;23.52;47.04
9415;BME280;4746;35.664;139.738;2023-04-08T04:35:35;99016.16;;;23.52;47.68
9415;BME280;4746;35.664;139.738;2023-04-08T04:38:03;99014.34;;;23.66;47.16
9415;BME280;4746;35.664;139.738;2023-04-08T04:40:37;99012.72;;;23.78;47.67
9415;BME280;4746;35.664;139.738;2023-04-08T04:43:05;99017.66;;;23.82;47.38
9415;BME280;4746;35.664;139.738;2023-04-08T04:45:32;99007.72;;;23.87;46.95
9415;BME280;4746;35.664;139.738;2023-04-08T04:47:59;99005.22;;;23.85;46.89
9415;BME280;4746;35.664;139.738;2023-04-08T04:50:27;99007.09;;;23.96;46.61
9415;BME280;4746;35.664;139.738;2023-04-08T04:52:55;98998.13;;;24.00;46.17
9415;BME280;4746;35.664;139.738;2023-04-08T04:55:22;99000.00;;;23.98;46.14
9415;BME280;4746;35.664;139.738;2023-04-08T04:57:50;98987.25;;;24.06;45.86
9415;BME280;4746;35.664;139.738;2023-04-08T05:00:17;98985.34;;;24.08;45.58
9415;BME280;4746;35.664;139.738;2023-04-08T05:02:45;98994.13;;;23.94;45.99
9415;BME280;4746;35.664;139.738;2023-04-08T05:05:13;98999.53;;;23.79;46.01
9415;BME280;4746;35.664;139.738;2023-04-08T05:07:40;98996.41;;;23.60;46.14
9415;BME280;4746;35.664;139.738;2023-04-08T05:10:08;99005.78;;;23.50;46.28
9415;BME280;4746;35.664;139.738;2023-04-08T05:12:36;99011.44;;;23.30;46.98
9415;BME280;4746;35.664;139.738;2023-04-08T05:15:05;99013.44;;;23.13;47.33
9415;BME280;4746;35.664;139.738;2023-04-08T05:17:32;99016.22;;;22.96;47.48
9415;BME280;4746;35.664;139.738;2023-04-08T05:20:00;99016.88;;;22.86;47.96
9415;BME280;4746;35.664;139.738;2023-04-08T05:22:27;99018.22;;;22.79;48.05
9415;BME280;4746;35.664;139.738;2023-04-08T05:24:55;99024.34;;;22.64;47.90
9415;BME280;4746;35.664;139.738;2023-04-08T05:27:22;99019.84;;;22.52;48.25
9415;BME280;4746;35.664;139.738;2023-04-08T05:29:50;99013.50;;;22.42;47.99
9415;BME280;4746;35.664;139.738;2023-04-08T05:32:17;98990.38;;;22.36;48.46
9415;BME280;4746;35.664;139.738;2023-04-08T05:34:45;98999.84;;;22.23;48.25
9415;BME280;4746;35.664;139.738;2023-04-08T05:37:12;99012.09;;;22.07;48.57
9415;BME280;4746;35.664;139.738;2023-04-08T05:39:40;99010.47;;;21.91;48.98
9415;BME280;4746;35.664;139.738;2023-04-08T05:42:08;99010.50;;;21.75;49.24
9415;BME280;4746;35.664;139.738;2023-04-08T05:44:36;99018.91;;;21.65;49.56
9415;BME280;4746;35.664;139.738;2023-04-08T05:47:04;99015.81;;;21.59;49.72
9415;BME280;4746;35.664;139.738;2023-04-08T05:49:33;98995.31;;;21.53;50.10
9415;BME280;4746;35.664;139.738;2023-04-08T05:52:00;99003.69;;;21.42;50.29
9415;BME280;4746;35.664;139.738;2023-04-08T05:54:29;99023.47;;;21.31;50.70
9415;BME280;4746;35.664;139.738;2023-04-08T05:56:57;99008.84;;;21.28;50.33
9415;BME280;4746;35.664;139.738;2023-04-08T05:59:24;98997.75;;;21.25;50.84
9415;BME280;4746;35.664;139.738;2023-04-08T06:01:52;99007.50;;;21.21;50.85
9415;BME280;4746;35.664;139.738;2023-04-08T06:04:20;98995.91;;;21.27;50.99
9415;BME280;4746;35.664;139.738;2023-04-08T06:06:48;98998.00;;;21.36;50.85
9415;BME280;4746;35.664;139.738;2023-04-08T06:09:16;98998.22;;;21.47;50.71
9415;BME280;4746;35.664;139.738;2023-04-08T06:11:43;99001.41;;;21.52;50.79
9415;BME280;4746;35.664;139.738;2023-04-08T06:14:13;99020.94;;;21.60;50.74
9415;BME280;4746;35.664;139.738;2023-04-08T06:16:41;99032.38;;;21.58;50.63
9415;BME280;4746;35.664;139.738;2023-04-08T06:19:08;99039.19;;;21.60;50.49
9415;BME280;4746;35.664;139.738;2023-04-08T06:21:36;99042.09;;;21.56;50.40
9415;BME280;4746;35.664;139.738;2023-04-08T06:24:03;99031.28;;;21.46;50.44
9415;BME280;4746;35.664;139.738;2023-04-08T06:26:31;99024.81;;;21.38;50.52
9415;BME280;4746;35.664;139.738;2023-04-08T06:28:58;99023.72;;;21.26;50.79
9415;BME280;4746;35.664;139.738;2023-04-08T06:31:27;99027.50;;;21.21;51.02
9415;BME280;4746;35.664;139.738;2023-04-08T06:33:55;99021.63;;;21.17;50.95
9415;BME280;4746;35.664;139.738;2023-04-08T06:36:22;99010.84;;;21.08;51.00
9415;BME280;4746;35.664;139.738;2023-04-08T06:38:50;99014.72;;;21.01;51.21
9415;BME280;4746;35.664;139.738;2023-04-08T06:41:17;99035.06;;;20.95;51.41
9415;BME280;4746;35.664;139.738;2023-04-08T06:43:45;99026.78;;;20.87;51.41
9415;BME280;4746;35.664;139.738;2023-04-08T06:46:12;99039.22;;;20.82;51.46
9415;BME280;4746;35.664;139.738;2023-04-08T06:48:39;99029.31;;;20.71;51.71
9415;BME280;4746;35.664;139.738;2023-04-08T06:51:07;99029.13;;;20.59;51.82
9415;BME280;4746;35.664;139.738;2023-04-08T06:53:34;99032.50;;;20.44;51.38
9415;BME280;4746;35.664;139.738;2023-04-08T06:56:02;99040.09;;;20.31;51.46
9415;BME280;4746;35.664;139.738;2023-04-08T06:58:29;99021.53;;;20.22;51.93
9415;BME280;4746;35.664;139.738;2023-04-08T07:00:58;99039.94;;;20.18;51.49
9415;BME280;4746;35.664;139.738;2023-04-08T07:03:27;99044.53;;;20.13;51.07
9415;BME280;4746;35.664;139.738;2023-04-08T07:05:54;99047.22;;;20.11;51.46
9415;BME280;4746;35.664;139.738;2023-04-08T07:08:22;99036.28;;;20.05;51.18
9415;BME280;4746;35.664;139.738;2023-04-08T07:10:51;99039.81;;;20.04;50.95
9415;BME280;4746;35.664;139.738;2023-04-08T07:13:19;99042.78;;;19.96;51.03
9415;BME280;4746;35.664;139.738;2023-04-08T07:15:47;99037.75;;;19.93;51.30
9415;BME280;4746;35.664;139.738;2023-04-08T07:18:14;99049.75;;;19.96;51.40
9415;BME280;4746;35.664;139.738;2023-04-08T07:20:42;99053.94;;;19.98;51.81
9415;BME280;4746;35.664;139.738;2023-04-08T07:23:09;99053.13;;;19.98;51.96
9415;BME280;4746;35.664;139.738;2023-04-08T07:25:36;99060.75;;;20.01;52.56
9415;BME280;4746;35.664;139.738;2023-04-08T07:28:04;99082.47;;;20.00;52.41
9415;BME280;4746;35.664;139.738;2023-04-08T07:30:32;99077.28;;;20.00;52.25
9415;BME280;4746;35.664;139.738;2023-04-08T07:32:59;99085.97;;;19.99;52.25
9415;BME280;4746;35.664;139.738;2023-04-08T07:35:27;99079.25;;;19.95;51.68
9415;BME280;4746;35.664;139.738;2023-04-08T07:37:55;99077.56;;;19.94;51.49
9415;BME280;4746;35.664;139.738;2023-04-08T07:40:23;99086.41;;;19.90;51.34
9415;BME280;4746;35.664;139.738;2023-04-08T07:42:51;99090.81;;;19.88;50.71
9415;BME280;4746;35.664;139.738;2023-04-08T07:45:19;99084.03;;;19.85;50.97
9415;BME280;4746;35.664;139.738;2023-04-08T07:47:46;99095.41;;;19.83;50.70
9415;BME280;4746;35.664;139.738;2023-04-08T07:50:14;99093.72;;;19.82;50.75
9415;BME280;4746;35.664;139.738;2023-04-08T07:52:41;99089.38;;;19.82;50.74
9415;BME280;4746;35.664;139.738;2023-04-08T07:55:09;99111.00;;;19.83;51.07
9415;BME280;4746;35.664;139.738;2023-04-08T07:57:37;99129.09;;;19.86;51.53
9415;BME280;4746;35.664;139.738;2023-04-08T08:00:05;99131.69;;;19.86;51.71
9415;BME280;4746;35.664;139.738;2023-04-08T08:02:34;99143.91;;;19.84;51.77
9415;BME280;4746;35.664;139.738;2023-04-08T08:05:01;99115.59;;;19.78;51.72
9415;BME280;4746;35.664;139.738;2023-04-08T08:07:29;99101.34;;;19.68;52.52
9415;BME280;4746;35.664;139.738;2023-04-08T08:09:56;99124.25;;;19.60;51.83
9415;BME280;4746;35.664;139.738;2023-04-08T08:12:24;99132.31;;;19.54;51.37
9415;BME280;4746;35.664;139.738;2023-04-08T08:14:52;99139.50;;;19.49;51.81
9415;BME280;4746;35.664;139.738;2023-04-08T08:17:22;99144.78;;;19.48;51.80
9415;BME280;4746;35.664;139.738;2023-04-08T08:19:50;99145.09;;;19.40;51.84
9415;BME280;4746;35.664;139.738;2023-04-08T08:22:18;99148.91;;;19.33;51.43
9415;BME280;4746;35.664;139.738;2023-04-08T08:24:45;99138.00;;;19.25;50.67
9415;BME280;4746;35.664;139.738;2023-04-08T08:27:13;99147.44;;;19.08;47.93
9415;BME280;4746;35.664;139.738;2023-04-08T08:29:40;99144.59;;;18.94;48.76
9415;BME280;4746;35.664;139.738;2023-04-08T08:32:09;99124.63;;;18.76;47.09
9415;BME280;4746;35.664;139.738;2023-04-08T08:34:37;99141.69;;;18.62;47.58
9415;BME280;4746;35.664;139.738;2023-04-08T08:37:04;99132.47;;;18.55;48.73
9415;BME280;4746;35.664;139.738;2023-04-08T08:39:32;99131.75;;;18.51;49.23
9415;BME280;4746;35.664;139.738;2023-04-08T08:41:59;99149.16;;;18.49;49.42
9415;BME280;4746;35.664;139.738;2023-04-08T08:44:28;99179.41;;;18.49;49.83
9415;BME280;4746;35.664;139.738;2023-04-08T08:46:56;99154.53;;;18.45;48.54
9415;BME280;4746;35.664;139.738;2023-04-08T08:49:23;99165.78;;;18.44;48.70
9415;BME280;4746;35.664;139.738;2023-04-08T08:51:54;99164.09;;;18.43;48.90
9415;BME280;4746;35.664;139.738;2023-04-08T08:54:21;99147.00;;;18.39;47.77
9415;BME280;4746;35.664;139.738;2023-04-08T08:56:49;99185.97;;;18.37;44.96
9415;BME280;4746;35.664;139.738;2023-04-08T08:59:16;99160.22;;;18.33;41.09
9415;BME280;4746;35.664;139.738;2023-04-08T09:01:44;99168.88;;;18.32;39.21
9415;BME280;4746;35.664;139.738;2023-04-08T09:04:16;99139.53;;;18.31;38.16
9415;BME280;4746;35.664;139.738;2023-04-08T09:06:47;99152.69;;;18.27;37.26
9415;BME280;4746;35.664;139.738;2023-04-08T09:09:17;99157.97;;;18.24;36.36
9415;BME280;4746;35.664;139.738;2023-04-08T09:11:46;99171.16;;;18.18;36.04
9415;BME280;4746;35.664;139.738;2023-04-08T09:14:24;99192.94;;;18.14;35.17
9415;BME280;4746;35.664;139.738;2023-04-08T09:16:52;99207.25;;;18.01;33.48
9415;BME280;4746;35.664;139.738;2023-04-08T09:19:20;99253.25;;;17.96;34.03
9415;BME280;4746;35.664;139.738;2023-04-08T09:22:08;99267.19;;;17.94;35.28
9415;BME280;4746;35.664;139.738;2023-04-08T09:24:37;99264.81;;;17.88;34.93
9415;BME280;4746;35.664;139.738;2023-04-08T09:27:05;99274.38;;;17.86;33.82
9415;BME280;4746;35.664;139.738;2023-04-08T09:29:33;99273.56;;;17.85;34.38
9415;BME280;4746;35.664;139.738;2023-04-08T09:32:01;99278.59;;;17.88;33.90
9415;BME280;4746;35.664;139.738;2023-04-08T09:34:30;99290.56;;;17.92;34.96
9415;BME280;4746;35.664;139.738;2023-04-08T09:36:59;99287.09;;;17.93;34.13
9415;BME280;4746;35.664;139.738;2023-04-08T09:39:27;99290.56;;;17.92;32.73
9415;BME280;4746;35.664;139.738;2023-04-08T09:41:59;99282.13;;;17.87;32.02
9415;BME280;4746;35.664;139.738;2023-04-08T09:44:32;99278.84;;;17.82;33.39
9415;BME280;4746;35.664;139.738;2023-04-08T09:47:16;99286.28;;;17.68;33.54
9415;BME280;4746;35.664;139.738;2023-04-08T09:50:00;99289.09;;;17.62;33.27
9415;BME280;4746;35.664;139.738;2023-04-08T09:52:52;99333.00;;;17.65;34.07
9415;BME280;4746;35.664;139.738;2023-04-08T09:55:29;99311.56;;;17.62;33.17
9415;BME280;4746;35.664;139.738;2023-04-08T09:58:13;99315.09;;;17.59;31.95
9415;BME280;4746;35.664;139.738;2023-04-08T10:00:48;99354.97;;;17.55;30.91
9415;BME280;4746;35.664;139.738;2023-04-08T10:03:39;99364.44;;;17.56;31.54
9415;BME280;4746;35.664;139.738;2023-04-08T10:06:11;99363.75;;;17.51;32.25
9415;BME280;4746;35.664;139.738;2023-04-08T10:08:38;99368.13;;;17.49;31.07
9415;BME280;4746;35.664;139.738;2023-04-08T10:11:07;99357.78;;;17.49;31.20
9415;BME280;4746;35.664;139.738;2023-04-08T10:13:35;99315.53;;;17.47;30.85
9415;BME280;4746;35.664;139.738;2023-04-08T10:16:24;99333.72;;;17.46;29.77
9415;BME280;4746;35.664;139.738;2023-04-08T10:18:54;99341.84;;;17.36;29.96
9415;BME280;4746;35.664;139.738;2023-04-08T10:21:41;99346.25;;;17.34;29.97
9415;BME280;4746;35.664;139.738;2023-04-08T10:24:17;99349.16;;;17.23;29.21
9415;BME280;4746;35.664;139.738;2023-04-08T10:26:51;99339.88;;;17.18;29.14
9415;BME280;4746;35.664;139.738;2023-04-08T10:31:49;99350.44;;;17.12;28.72
9415;BME280;4746;35.664;139.738;2023-04-08T10:34:24;99391.03;;;17.10;28.83
9415;BME280;4746;35.664;139.738;2023-04-08T10:36:55;99401.53;;;17.05;28.72
9415;BME280;4746;35.664;139.738;2023-04-08T10:39:25;99431.84;;;17.02;28.60
9415;BME280;4746;35.664;139.738;2023-04-08T10:41:53;99394.00;;;16.98;28.75
9415;BME280;4746;35.664;139.738;2023-04-08T10:44:25;99417.25;;;16.99;28.69
9415;BME280;4746;35.664;139.738;2023-04-08T10:46:54;99427.72;;;16.96;28.43
9415;BME280;4746;35.664;139.738;2023-04-08T10:49:22;99416.56;;;16.94;28.66
9415;BME280;4746;35.664;139.738;2023-04-08T10:51:59;99422.63;;;16.93;28.65
9415;BME280;4746;35.664;139.738;2023-04-08T10:54:27;99441.78;;;16.88;28.65
9415;BME280;4746;35.664;139.738;2023-04-08T10:56:54;99467.78;;;16.83;28.47
9415;BME280;4746;35.664;139.738;2023-04-08T10:59:30;99460.16;;;16.79;28.30
9415;BME280;4746;35.664;139.738;2023-04-08T11:01:59;99444.88;;;16.71;28.62
9415;BME280;4746;35.664;139.738;2023-04-08T11:04:27;99460.34;;;16.73;28.81
9415;BME280;4746;35.664;139.738;2023-04-08T11:06:54;99447.50;;;16.70;28.93
9415;BME280;4746;35.664;139.738;2023-04-08T11:09:22;99480.31;;;16.68;28.20
9415;BME280;4746;35.664;139.738;2023-04-08T11:11:49;99481.25;;;16.66;28.48
9415;BME280;4746;35.664;139.738;2023-04-08T11:14:19;99462.31;;;16.65;28.08
9415;BME280;4746;35.664;139.738;2023-04-08T11:16:48;99489.97;;;16.63;28.16
9415;BME280;4746;35.664;139.738;2023-04-08T11:19:16;99477.16;;;16.59;27.82
9415;BME280;4746;35.664;139.738;2023-04-08T11:21:44;99512.59;;;16.55;27.97
9415;BME280;4746;35.664;139.738;2023-04-08T11:24:12;99511.00;;;16.51;27.98
9415;BME280;4746;35.664;139.738;2023-04-08T11:26:42;99496.47;;;16.47;28.38
9415;BME280;4746;35.664;139.738;2023-04-08T11:29:12;99506.00;;;16.45;28.05
9415;BME280;4746;35.664;139.738;2023-04-08T11:31:43;99517.31;;;16.41;27.94
9415;BME280;4746;35.664;139.738;2023-04-08T11:34:23;99514.00;;;16.36;28.10
9415;BME280;4746;35.664;139.738;2023-04-08T11:36:52;99508.22;;;16.27;28.00
9415;BME280;4746;35.664;139.738;2023-04-08T11:39:22;99521.25;;;16.22;27.64
9415;BME280;4746;35.664;139.738;2023-04-08T11:41:50;99518.00;;;16.14;28.12
9415;BME280;4746;35.664;139.738;2023-04-08T11:44:17;99506.94;;;16.09;28.27
9415;BME280;4746;35.664;139.738;2023-04-08T11:46:53;99508.72;;;16.07;28.23
9415;BME280;4746;35.664;139.738;2023-04-08T11:49:22;99528.72;;;16.01;28.58
9415;BME280;4746;35.664;139.738;2023-04-08T11:51:58;99536.41;;;16.02;28.64
9415;BME280;4746;35.664;139.738;2023-04-08T11:54:31;99545.16;;;15.98;28.57
9415;BME280;4746;35.664;139.738;2023-04-08T11:56:59;99564.28;;;15.92;27.96
9415;BME280;4746;35.664;139.738;2023-04-08T11:59:28;99566.13;;;15.87;28.33
9415;BME280;4746;35.664;139.738;2023-04-08T12:01:56;99565.34;;;15.83;28.28
9415;BME280;4746;35.664;139.738;2023-04-08T12:04:24;99569.81;;;15.77;27.79
9415;BME280;4746;35.664;139.738;2023-04-08T12:06:52;99558.75;;;15.72;27.89
9415;BME280;4746;35.664;139.738;2023-04-08T12:09:19;99576.97;;;15.66;28.02
9415;BME280;4746;35.664;139.738;2023-04-08T12:11:47;99577.03;;;15.63;28.22
9415;BME280;4746;35.664;139.738;2023-04-08T12:14:15;99566.84;;;15.57;28.03
9415;BME280;4746;35.664;139.738;2023-04-08T12:16:42;99572.09;;;15.54;28.57
9415;BME280;4746;35.664;139.738;2023-04-08T12:19:10;99578.19;;;15.50;27.87
9415;BME280;4746;35.664;139.738;2023-04-08T12:21:37;99579.22;;;15.43;28.25
9415;BME280;4746;35.664;139.738;2023-04-08T12:24:05;99572.44;;;15.39;28.40
9415;BME280;4746;35.664;139.738;2023-04-08T12:26:33;99589.75;;;15.34;28.61
9415;BME280;4746;35.664;139.738;2023-04-08T12:29:00;99581.19;;;15.32;28.13
9415;BME280;4746;35.664;139.738;2023-04-08T12:31:28;99597.63;;;15.28;28.25
9415;BME280;4746;35.664;139.738;2023-04-08T12:33:55;99609.72;;;15.26;28.35
9415;BME280;4746;35.664;139.738;2023-04-08T12:36:23;99608.09;;;15.21;28.39
9415;BME280;4746;35.664;139.738;2023-04-08T12:38:50;99603.06;;;15.15;28.51
9415;BME280;4746;35.664;139.738;2023-04-08T12:41:17;99617.75;;;15.11;28.67
9415;BME280;4746;35.664;139.738;2023-04-08T12:43:45;99617.81;;;15.08;28.34
9415;BME280;4746;35.664;139.738;2023-04-08T12:46:12;99622.25;;;15.02;28.48
9415;BME280;4746;35.664;139.738;2023-04-08T12:48:40;99620.63;;;14.96;28.76
9415;BME280;4746;35.664;139.738;2023-04-08T12:51:07;99632.78;;;14.91;28.60
9415;BME280;4746;35.664;139.738;2023-04-08T12:53:36;99630.31;;;14.85;29.17
9415;BME280;4746;35.664;139.738;2023-04-08T12:56:03;99626.94;;;14.83;29.29
9415;BME280;4746;35.664;139.738;2023-04-08T12:58:32;99636.38;;;14.83;29.25
9415;BME280;4746;35.664;139.738;2023-04-08T13:01:01;99644.94;;;14.85;28.91
9415;BME280;4746;35.664;139.738;2023-04-08T13:03:28;99645.00;;;14.83;29.25
9415;BME280;4746;35.664;139.738;2023-04-08T13:05:57;99663.91;;;14.82;29.69
9415;BME280;4746;35.664;139.738;2023-04-08T13:08:25;99661.38;;;14.81;29.15
9415;BME280;4746;35.664;139.738;2023-04-08T13:10:53;99667.41;;;14.80;29.24
9415;BME280;4746;35.664;139.738;2023-04-08T13:13:21;99663.97;;;14.79;29.43
9415;BME280;4746;35.664;139.738;2023-04-08T13:15:48;99670.91;;;14.76;29.10
9415;BME280;4746;35.664;139.738;2023-04-08T13:18:16;99677.00;;;14.72;29.15
9415;BME280;4746;35.664;139.738;2023-04-08T13:20:43;99673.63;;;14.68;29.00